Página principal
METAR-TAF:

METAR-TAF

Aeroportos :

Pyongyang, Coreia do Norte

latitude: 39-02N, longitude: 125-47E, altura: 36 m

METAR: em falta

Hora: 03:34 (19:04 UTC)

Previsão

O boletim foi feito há 14 horas e 34 minutos, às 04:30 UTC
Previsão válida de 28 às 06 UTC a 29 às 06 UTC
Vento 8 kt de norte
Visibilidade 10 km ou mais
Nuvens fragmentadasa uma altura de 2000 ft

TAF: ZKPY 280430Z 2806/2906 35004MPS 9999 BKN020

Observações e previsões do tempo de mais de 4000 aeroportos (mensagens METAR e TAF).

As estações disponíveis são os pontos amarelos e vermelhos sobre o mapa.

Mova o rato sobre o mapa para ver o nome da estação.

Depois clique no ponto para visualizar as observações e previsões meteorológicas.

Para alterar o mapa : clique nos botões verdes com uma cruz preta para aumentar o zoom; no botão verde com uma pitada de zoom; ou nas setas verdes para mapas adjacentes.


METAR-TAF: